sensor_id;sensor_type;location;lat;lon;timestamp;P1;durP1;ratioP1;P2;durP2;ratioP2
34725;SDS011;20951;50.818;4.344;2023-09-19T00:00:45;14.65;;;2.97;;
34725;SDS011;20951;50.818;4.344;2023-09-19T00:03:14;13.00;;;2.47;;
34725;SDS011;20951;50.818;4.344;2023-09-19T00:05:41;15.15;;;2.67;;
34725;SDS011;20951;50.818;4.344;2023-09-19T00:08:11;13.40;;;2.78;;
34725;SDS011;20951;50.818;4.344;2023-09-19T00:10:39;10.40;;;2.45;;
34725;SDS011;20951;50.818;4.344;2023-09-19T00:13:07;12.43;;;3.20;;
34725;SDS011;20951;50.818;4.344;2023-09-19T00:15:38;16.60;;;3.30;;
34725;SDS011;20951;50.818;4.344;2023-09-19T00:18:05;16.10;;;2.78;;
34725;SDS011;20951;50.818;4.344;2023-09-19T00:20:35;13.27;;;3.30;;
34725;SDS011;20951;50.818;4.344;2023-09-19T00:23:02;15.02;;;3.03;;
34725;SDS011;20951;50.818;4.344;2023-09-19T00:25:30;12.57;;;2.60;;
34725;SDS011;20951;50.818;4.344;2023-09-19T00:27:57;15.27;;;2.75;;
34725;SDS011;20951;50.818;4.344;2023-09-19T00:30:23;14.25;;;3.17;;
34725;SDS011;20951;50.818;4.344;2023-09-19T00:32:49;12.57;;;2.90;;
34725;SDS011;20951;50.818;4.344;2023-09-19T00:35:20;16.77;;;3.25;;
34725;SDS011;20951;50.818;4.344;2023-09-19T00:37:49;11.98;;;2.72;;
34725;SDS011;20951;50.818;4.344;2023-09-19T00:40:16;16.83;;;3.28;;
34725;SDS011;20951;50.818;4.344;2023-09-19T00:42:44;17.02;;;2.75;;
34725;SDS011;20951;50.818;4.344;2023-09-19T00:45:15;13.85;;;2.85;;
34725;SDS011;20951;50.818;4.344;2023-09-19T00:47:43;16.73;;;3.38;;
34725;SDS011;20951;50.818;4.344;2023-09-19T00:50:12;15.80;;;3.13;;
34725;SDS011;20951;50.818;4.344;2023-09-19T00:52:42;13.38;;;3.00;;
34725;SDS011;20951;50.818;4.344;2023-09-19T00:55:10;12.98;;;3.00;;
34725;SDS011;20951;50.818;4.344;2023-09-19T00:57:39;11.20;;;2.45;;
34725;SDS011;20951;50.818;4.344;2023-09-19T01:00:06;12.05;;;2.80;;
34725;SDS011;20951;50.818;4.344;2023-09-19T01:02:36;13.98;;;2.80;;
34725;SDS011;20951;50.818;4.344;2023-09-19T01:05:02;15.90;;;3.20;;
34725;SDS011;20951;50.818;4.344;2023-09-19T01:07:32;16.42;;;2.85;;
34725;SDS011;20951;50.818;4.344;2023-09-19T01:09:59;12.50;;;2.90;;
34725;SDS011;20951;50.818;4.344;2023-09-19T01:13:03;13.38;;;3.00;;
34725;SDS011;20951;50.818;4.344;2023-09-19T01:15:42;16.92;;;3.10;;
34725;SDS011;20951;50.818;4.344;2023-09-19T01:18:35;12.50;;;2.40;;
34725;SDS011;20951;50.818;4.344;2023-09-19T01:21:23;13.02;;;2.88;;
34725;SDS011;20951;50.818;4.344;2023-09-19T01:32:57;16.73;;;3.30;;
34725;SDS011;20951;50.818;4.344;2023-09-19T01:35:24;14.35;;;3.05;;
34725;SDS011;20951;50.818;4.344;2023-09-19T01:37:51;13.77;;;2.63;;
34725;SDS011;20951;50.818;4.344;2023-09-19T01:40:18;13.88;;;3.00;;
34725;SDS011;20951;50.818;4.344;2023-09-19T01:47:56;14.07;;;3.20;;
34725;SDS011;20951;50.818;4.344;2023-09-19T01:50:41;15.88;;;3.42;;
34725;SDS011;20951;50.818;4.344;2023-09-19T01:53:24;16.05;;;3.33;;
34725;SDS011;20951;50.818;4.344;2023-09-19T01:55:58;15.63;;;3.70;;
34725;SDS011;20951;50.818;4.344;2023-09-19T01:58:29;17.95;;;3.67;;
34725;SDS011;20951;50.818;4.344;2023-09-19T02:01:05;18.05;;;3.30;;
34725;SDS011;20951;50.818;4.344;2023-09-19T02:03:33;14.30;;;3.63;;
34725;SDS011;20951;50.818;4.344;2023-09-19T02:06:00;14.90;;;3.13;;
34725;SDS011;20951;50.818;4.344;2023-09-19T02:08:26;15.23;;;2.85;;
34725;SDS011;20951;50.818;4.344;2023-09-19T02:10:52;16.50;;;3.03;;
34725;SDS011;20951;50.818;4.344;2023-09-19T02:13:18;13.38;;;3.28;;
34725;SDS011;20951;50.818;4.344;2023-09-19T02:15:46;15.23;;;3.47;;
34725;SDS011;20951;50.818;4.344;2023-09-19T02:18:15;13.60;;;3.00;;
34725;SDS011;20951;50.818;4.344;2023-09-19T02:20:42;14.57;;;3.20;;
34725;SDS011;20951;50.818;4.344;2023-09-19T02:23:08;19.60;;;3.40;;
34725;SDS011;20951;50.818;4.344;2023-09-19T02:25:35;15.48;;;2.88;;
34725;SDS011;20951;50.818;4.344;2023-09-19T02:28:01;15.27;;;3.10;;
34725;SDS011;20951;50.818;4.344;2023-09-19T02:30:28;15.43;;;3.60;;
34725;SDS011;20951;50.818;4.344;2023-09-19T02:32:54;15.50;;;3.40;;
34725;SDS011;20951;50.818;4.344;2023-09-19T02:35:23;15.63;;;3.40;;
34725;SDS011;20951;50.818;4.344;2023-09-19T02:37:52;15.88;;;3.45;;
34725;SDS011;20951;50.818;4.344;2023-09-19T02:40:18;17.67;;;4.03;;
34725;SDS011;20951;50.818;4.344;2023-09-19T02:42:45;13.90;;;2.90;;
34725;SDS011;20951;50.818;4.344;2023-09-19T02:45:14;17.52;;;3.35;;
34725;SDS011;20951;50.818;4.344;2023-09-19T02:47:43;13.52;;;2.95;;
34725;SDS011;20951;50.818;4.344;2023-09-19T02:50:10;12.80;;;2.85;;
34725;SDS011;20951;50.818;4.344;2023-09-19T02:52:36;16.02;;;3.50;;
34725;SDS011;20951;50.818;4.344;2023-09-19T02:55:08;17.25;;;3.65;;
34725;SDS011;20951;50.818;4.344;2023-09-19T02:57:35;18.77;;;3.75;;
34725;SDS011;20951;50.818;4.344;2023-09-19T03:00:06;13.23;;;3.30;;
34725;SDS011;20951;50.818;4.344;2023-09-19T03:02:35;17.40;;;3.45;;
34725;SDS011;20951;50.818;4.344;2023-09-19T03:05:01;15.50;;;3.08;;
34725;SDS011;20951;50.818;4.344;2023-09-19T03:07:28;11.75;;;3.22;;
34725;SDS011;20951;50.818;4.344;2023-09-19T03:09:55;15.95;;;3.30;;
34725;SDS011;20951;50.818;4.344;2023-09-19T03:12:24;14.48;;;3.13;;
34725;SDS011;20951;50.818;4.344;2023-09-19T03:14:50;10.10;;;2.88;;
34725;SDS011;20951;50.818;4.344;2023-09-19T03:17:17;15.30;;;3.45;;
34725;SDS011;20951;50.818;4.344;2023-09-19T03:19:45;15.20;;;3.40;;
34725;SDS011;20951;50.818;4.344;2023-09-19T03:22:12;12.63;;;3.08;;
34725;SDS011;20951;50.818;4.344;2023-09-19T03:24:39;16.30;;;3.33;;
34725;SDS011;20951;50.818;4.344;2023-09-19T03:27:09;14.23;;;2.90;;
34725;SDS011;20951;50.818;4.344;2023-09-19T03:29:35;11.13;;;2.97;;
34725;SDS011;20951;50.818;4.344;2023-09-19T03:32:01;14.35;;;2.97;;
34725;SDS011;20951;50.818;4.344;2023-09-19T03:34:28;14.20;;;3.03;;
34725;SDS011;20951;50.818;4.344;2023-09-19T03:36:54;14.48;;;3.00;;
34725;SDS011;20951;50.818;4.344;2023-09-19T03:39:20;14.45;;;2.80;;
34725;SDS011;20951;50.818;4.344;2023-09-19T03:41:47;11.82;;;3.08;;
34725;SDS011;20951;50.818;4.344;2023-09-19T03:44:13;16.23;;;3.20;;
34725;SDS011;20951;50.818;4.344;2023-09-19T03:46:40;13.10;;;2.90;;
34725;SDS011;20951;50.818;4.344;2023-09-19T03:49:06;13.88;;;2.90;;
34725;SDS011;20951;50.818;4.344;2023-09-19T03:51:32;13.80;;;3.20;;
34725;SDS011;20951;50.818;4.344;2023-09-19T03:53:59;16.88;;;2.88;;
34725;SDS011;20951;50.818;4.344;2023-09-19T03:56:25;15.23;;;3.03;;
34725;SDS011;20951;50.818;4.344;2023-09-19T03:58:51;12.45;;;3.05;;
34725;SDS011;20951;50.818;4.344;2023-09-19T04:01:17;18.55;;;3.47;;
34725;SDS011;20951;50.818;4.344;2023-09-19T04:03:44;16.35;;;3.10;;
34725;SDS011;20951;50.818;4.344;2023-09-19T04:06:15;14.48;;;2.78;;
34725;SDS011;20951;50.818;4.344;2023-09-19T04:08:42;13.70;;;3.15;;
34725;SDS011;20951;50.818;4.344;2023-09-19T04:11:09;16.77;;;2.90;;
34725;SDS011;20951;50.818;4.344;2023-09-19T04:13:36;14.10;;;3.17;;
34725;SDS011;20951;50.818;4.344;2023-09-19T04:16:02;13.75;;;3.28;;
34725;SDS011;20951;50.818;4.344;2023-09-19T04:18:37;13.38;;;3.08;;
34725;SDS011;20951;50.818;4.344;2023-09-19T04:21:04;15.85;;;3.30;;
34725;SDS011;20951;50.818;4.344;2023-09-19T04:23:31;17.65;;;3.20;;
34725;SDS011;20951;50.818;4.344;2023-09-19T04:25:57;18.65;;;3.05;;
34725;SDS011;20951;50.818;4.344;2023-09-19T04:28:23;14.50;;;3.10;;
34725;SDS011;20951;50.818;4.344;2023-09-19T04:30:50;15.00;;;3.38;;
34725;SDS011;20951;50.818;4.344;2023-09-19T04:33:16;13.40;;;3.35;;
34725;SDS011;20951;50.818;4.344;2023-09-19T04:35:42;14.02;;;3.25;;
34725;SDS011;20951;50.818;4.344;2023-09-19T04:38:09;15.55;;;3.55;;
34725;SDS011;20951;50.818;4.344;2023-09-19T04:40:35;14.00;;;3.38;;
34725;SDS011;20951;50.818;4.344;2023-09-19T04:43:01;16.05;;;3.55;;
34725;SDS011;20951;50.818;4.344;2023-09-19T04:45:28;17.05;;;3.15;;
34725;SDS011;20951;50.818;4.344;2023-09-19T04:47:54;19.20;;;3.28;;
34725;SDS011;20951;50.818;4.344;2023-09-19T04:50:21;13.38;;;2.67;;
34725;SDS011;20951;50.818;4.344;2023-09-19T04:52:51;14.95;;;3.20;;
34725;SDS011;20951;50.818;4.344;2023-09-19T04:55:17;14.27;;;3.00;;
34725;SDS011;20951;50.818;4.344;2023-09-19T04:57:44;13.05;;;2.45;;
34725;SDS011;20951;50.818;4.344;2023-09-19T05:00:15;18.42;;;3.45;;
34725;SDS011;20951;50.818;4.344;2023-09-19T05:02:44;15.70;;;3.42;;
34725;SDS011;20951;50.818;4.344;2023-09-19T05:05:11;18.90;;;3.22;;
34725;SDS011;20951;50.818;4.344;2023-09-19T05:07:41;15.43;;;2.70;;
34725;SDS011;20951;50.818;4.344;2023-09-19T05:10:11;18.60;;;3.40;;
34725;SDS011;20951;50.818;4.344;2023-09-19T05:12:37;18.00;;;3.22;;
34725;SDS011;20951;50.818;4.344;2023-09-19T05:15:04;19.25;;;2.95;;
34725;SDS011;20951;50.818;4.344;2023-09-19T05:17:34;17.02;;;3.50;;
34725;SDS011;20951;50.818;4.344;2023-09-19T05:20:01;17.33;;;3.08;;
34725;SDS011;20951;50.818;4.344;2023-09-19T05:22:42;15.48;;;3.17;;
34725;SDS011;20951;50.818;4.344;2023-09-19T05:25:10;15.80;;;3.05;;
34725;SDS011;20951;50.818;4.344;2023-09-19T05:27:44;13.50;;;3.10;;
34725;SDS011;20951;50.818;4.344;2023-09-19T05:30:13;14.88;;;3.03;;
34725;SDS011;20951;50.818;4.344;2023-09-19T05:32:41;18.02;;;3.70;;
34725;SDS011;20951;50.818;4.344;2023-09-19T05:35:08;15.82;;;3.47;;
34725;SDS011;20951;50.818;4.344;2023-09-19T05:37:35;22.42;;;3.75;;
34725;SDS011;20951;50.818;4.344;2023-09-19T05:40:04;14.23;;;3.17;;
34725;SDS011;20951;50.818;4.344;2023-09-19T05:42:37;15.65;;;2.80;;
34725;SDS011;20951;50.818;4.344;2023-09-19T05:45:08;14.32;;;3.00;;
34725;SDS011;20951;50.818;4.344;2023-09-19T05:47:37;19.17;;;3.30;;
34725;SDS011;20951;50.818;4.344;2023-09-19T05:50:05;18.48;;;3.17;;
34725;SDS011;20951;50.818;4.344;2023-09-19T05:52:34;18.25;;;2.88;;
34725;SDS011;20951;50.818;4.344;2023-09-19T05:55:03;17.77;;;3.08;;
34725;SDS011;20951;50.818;4.344;2023-09-19T05:57:35;17.48;;;3.20;;
34725;SDS011;20951;50.818;4.344;2023-09-19T06:00:04;12.13;;;2.70;;
34725;SDS011;20951;50.818;4.344;2023-09-19T06:02:35;12.82;;;2.67;;
34725;SDS011;20951;50.818;4.344;2023-09-19T06:05:04;11.65;;;2.65;;
34725;SDS011;20951;50.818;4.344;2023-09-19T06:07:37;16.58;;;3.33;;
34725;SDS011;20951;50.818;4.344;2023-09-19T06:10:03;20.55;;;3.90;;
34725;SDS011;20951;50.818;4.344;2023-09-19T06:12:33;16.85;;;3.03;;
34725;SDS011;20951;50.818;4.344;2023-09-19T06:15:03;18.33;;;3.50;;
34725;SDS011;20951;50.818;4.344;2023-09-19T06:17:42;16.95;;;3.35;;
34725;SDS011;20951;50.818;4.344;2023-09-19T06:20:19;16.23;;;3.10;;
34725;SDS011;20951;50.818;4.344;2023-09-19T06:22:50;16.92;;;3.28;;
34725;SDS011;20951;50.818;4.344;2023-09-19T06:25:32;15.45;;;2.90;;
34725;SDS011;20951;50.818;4.344;2023-09-19T06:28:01;15.85;;;3.30;;
34725;SDS011;20951;50.818;4.344;2023-09-19T06:30:30;16.52;;;3.38;;
34725;SDS011;20951;50.818;4.344;2023-09-19T06:32:57;14.18;;;2.83;;
34725;SDS011;20951;50.818;4.344;2023-09-19T06:35:24;15.90;;;2.67;;
34725;SDS011;20951;50.818;4.344;2023-09-19T06:37:51;13.75;;;2.85;;
34725;SDS011;20951;50.818;4.344;2023-09-19T06:40:18;14.75;;;2.63;;
34725;SDS011;20951;50.818;4.344;2023-09-19T06:42:45;14.57;;;3.00;;
34725;SDS011;20951;50.818;4.344;2023-09-19T06:45:13;13.45;;;2.55;;
34725;SDS011;20951;50.818;4.344;2023-09-19T06:47:44;14.07;;;3.03;;
34725;SDS011;20951;50.818;4.344;2023-09-19T06:50:14;15.05;;;3.25;;
34725;SDS011;20951;50.818;4.344;2023-09-19T06:52:44;18.88;;;2.80;;
34725;SDS011;20951;50.818;4.344;2023-09-19T06:55:13;14.77;;;2.97;;
34725;SDS011;20951;50.818;4.344;2023-09-19T06:57:42;16.88;;;3.42;;
34725;SDS011;20951;50.818;4.344;2023-09-19T07:00:11;11.77;;;2.80;;
34725;SDS011;20951;50.818;4.344;2023-09-19T07:02:44;16.75;;;3.15;;
34725;SDS011;20951;50.818;4.344;2023-09-19T07:05:10;16.45;;;2.90;;
34725;SDS011;20951;50.818;4.344;2023-09-19T07:07:39;14.45;;;2.80;;
34725;SDS011;20951;50.818;4.344;2023-09-19T07:10:06;16.70;;;3.13;;
34725;SDS011;20951;50.818;4.344;2023-09-19T07:12:36;14.18;;;3.00;;
34725;SDS011;20951;50.818;4.344;2023-09-19T07:15:02;15.48;;;3.13;;
34725;SDS011;20951;50.818;4.344;2023-09-19T07:17:31;15.75;;;3.20;;
34725;SDS011;20951;50.818;4.344;2023-09-19T07:19:58;20.10;;;3.20;;
34725;SDS011;20951;50.818;4.344;2023-09-19T07:22:28;13.60;;;2.80;;
34725;SDS011;20951;50.818;4.344;2023-09-19T07:24:55;15.45;;;3.10;;
34725;SDS011;20951;50.818;4.344;2023-09-19T07:27:21;15.70;;;2.72;;
34725;SDS011;20951;50.818;4.344;2023-09-19T07:29:51;17.25;;;3.10;;
34725;SDS011;20951;50.818;4.344;2023-09-19T07:32:20;15.73;;;3.08;;
34725;SDS011;20951;50.818;4.344;2023-09-19T07:34:49;14.32;;;2.80;;
34725;SDS011;20951;50.818;4.344;2023-09-19T07:37:20;13.70;;;3.00;;
34725;SDS011;20951;50.818;4.344;2023-09-19T07:39:47;17.13;;;3.15;;
34725;SDS011;20951;50.818;4.344;2023-09-19T07:42:13;17.23;;;2.85;;
34725;SDS011;20951;50.818;4.344;2023-09-19T07:44:44;17.02;;;3.08;;
34725;SDS011;20951;50.818;4.344;2023-09-19T07:47:18;17.30;;;3.08;;
34725;SDS011;20951;50.818;4.344;2023-09-19T07:49:46;12.55;;;2.88;;
34725;SDS011;20951;50.818;4.344;2023-09-19T07:52:13;18.08;;;3.08;;
34725;SDS011;20951;50.818;4.344;2023-09-19T07:54:42;21.98;;;3.95;;
34725;SDS011;20951;50.818;4.344;2023-09-19T07:57:09;11.98;;;3.00;;
34725;SDS011;20951;50.818;4.344;2023-09-19T07:59:45;16.13;;;2.95;;
34725;SDS011;20951;50.818;4.344;2023-09-19T08:02:12;14.10;;;2.97;;
34725;SDS011;20951;50.818;4.344;2023-09-19T08:04:44;13.98;;;3.10;;
34725;SDS011;20951;50.818;4.344;2023-09-19T08:07:16;11.55;;;2.88;;
34725;SDS011;20951;50.818;4.344;2023-09-19T08:09:42;14.75;;;3.40;;
34725;SDS011;20951;50.818;4.344;2023-09-19T08:12:11;10.15;;;2.50;;
34725;SDS011;20951;50.818;4.344;2023-09-19T08:14:40;18.05;;;2.65;;
34725;SDS011;20951;50.818;4.344;2023-09-19T08:17:07;15.60;;;3.05;;
34725;SDS011;20951;50.818;4.344;2023-09-19T08:19:35;16.95;;;2.75;;
34725;SDS011;20951;50.818;4.344;2023-09-19T08:22:05;15.77;;;2.83;;
34725;SDS011;20951;50.818;4.344;2023-09-19T08:24:35;12.38;;;2.90;;
34725;SDS011;20951;50.818;4.344;2023-09-19T08:27:03;13.10;;;2.67;;
34725;SDS011;20951;50.818;4.344;2023-09-19T08:29:31;14.57;;;3.20;;
34725;SDS011;20951;50.818;4.344;2023-09-19T08:31:57;16.63;;;3.00;;
34725;SDS011;20951;50.818;4.344;2023-09-19T08:34:25;12.25;;;2.90;;
34725;SDS011;20951;50.818;4.344;2023-09-19T08:36:52;15.45;;;2.97;;
34725;SDS011;20951;50.818;4.344;2023-09-19T08:39:24;9.60;;;2.40;;
34725;SDS011;20951;50.818;4.344;2023-09-19T08:44:26;12.57;;;3.13;;
34725;SDS011;20951;50.818;4.344;2023-09-19T08:47:00;15.30;;;2.70;;
34725;SDS011;20951;50.818;4.344;2023-09-19T08:49:53;12.57;;;2.88;;
34725;SDS011;20951;50.818;4.344;2023-09-19T08:52:28;12.05;;;3.10;;
34725;SDS011;20951;50.818;4.344;2023-09-19T08:55:04;16.08;;;3.03;;
34725;SDS011;20951;50.818;4.344;2023-09-19T08:57:35;15.52;;;2.90;;
34725;SDS011;20951;50.818;4.344;2023-09-19T09:00:07;13.60;;;2.88;;
34725;SDS011;20951;50.818;4.344;2023-09-19T09:02:37;9.98;;;2.60;;
34725;SDS011;20951;50.818;4.344;2023-09-19T09:05:08;11.55;;;2.28;;
34725;SDS011;20951;50.818;4.344;2023-09-19T09:07:47;12.30;;;2.55;;
34725;SDS011;20951;50.818;4.344;2023-09-19T09:10:21;13.32;;;2.33;;
34725;SDS011;20951;50.818;4.344;2023-09-19T09:12:49;12.43;;;3.10;;
34725;SDS011;20951;50.818;4.344;2023-09-19T09:15:24;8.75;;;2.30;;
34725;SDS011;20951;50.818;4.344;2023-09-19T09:17:50;11.75;;;2.50;;
34725;SDS011;20951;50.818;4.344;2023-09-19T09:20:23;15.02;;;2.88;;
34725;SDS011;20951;50.818;4.344;2023-09-19T09:23:09;10.73;;;2.42;;
34725;SDS011;20951;50.818;4.344;2023-09-19T09:25:48;12.23;;;2.55;;
34725;SDS011;20951;50.818;4.344;2023-09-19T09:28:23;7.93;;;1.90;;
34725;SDS011;20951;50.818;4.344;2023-09-19T09:30:53;12.93;;;2.10;;
34725;SDS011;20951;50.818;4.344;2023-09-19T09:33:21;12.80;;;2.50;;
34725;SDS011;20951;50.818;4.344;2023-09-19T09:35:48;7.20;;;2.03;;
34725;SDS011;20951;50.818;4.344;2023-09-19T09:38:46;12.45;;;2.10;;
34725;SDS011;20951;50.818;4.344;2023-09-19T09:41:21;12.18;;;2.40;;
34725;SDS011;20951;50.818;4.344;2023-09-19T09:44:15;10.15;;;2.45;;
34725;SDS011;20951;50.818;4.344;2023-09-19T09:46:43;8.32;;;1.88;;
34725;SDS011;20951;50.818;4.344;2023-09-19T09:49:22;9.43;;;2.05;;
34725;SDS011;20951;50.818;4.344;2023-09-19T09:51:51;15.90;;;2.47;;
34725;SDS011;20951;50.818;4.344;2023-09-19T09:54:30;8.25;;;2.15;;
34725;SDS011;20951;50.818;4.344;2023-09-19T09:57:04;10.00;;;1.98;;
34725;SDS011;20951;50.818;4.344;2023-09-19T09:59:52;9.00;;;2.00;;
34725;SDS011;20951;50.818;4.344;2023-09-19T10:02:37;10.05;;;2.17;;
34725;SDS011;20951;50.818;4.344;2023-09-19T10:05:16;10.57;;;2.17;;
34725;SDS011;20951;50.818;4.344;2023-09-19T10:07:47;8.93;;;1.83;;
34725;SDS011;20951;50.818;4.344;2023-09-19T10:10:34;8.50;;;1.83;;
34725;SDS011;20951;50.818;4.344;2023-09-19T10:13:09;12.82;;;2.10;;
34725;SDS011;20951;50.818;4.344;2023-09-19T10:15:42;10.30;;;2.05;;
34725;SDS011;20951;50.818;4.344;2023-09-19T10:18:16;11.50;;;2.47;;
34725;SDS011;20951;50.818;4.344;2023-09-19T10:20:52;7.90;;;1.90;;
34725;SDS011;20951;50.818;4.344;2023-09-19T10:23:20;10.02;;;2.00;;
34725;SDS011;20951;50.818;4.344;2023-09-19T10:25:51;7.43;;;1.52;;
34725;SDS011;20951;50.818;4.344;2023-09-19T10:28:18;10.73;;;2.00;;
34725;SDS011;20951;50.818;4.344;2023-09-19T10:30:48;8.23;;;1.83;;
34725;SDS011;20951;50.818;4.344;2023-09-19T10:33:17;7.85;;;1.75;;
34725;SDS011;20951;50.818;4.344;2023-09-19T10:35:48;7.00;;;1.58;;
34725;SDS011;20951;50.818;4.344;2023-09-19T10:38:19;7.93;;;1.70;;
34725;SDS011;20951;50.818;4.344;2023-09-19T10:40:50;12.32;;;2.00;;
34725;SDS011;20951;50.818;4.344;2023-09-19T10:43:18;8.75;;;1.95;;
34725;SDS011;20951;50.818;4.344;2023-09-19T10:45:46;9.02;;;1.73;;
34725;SDS011;20951;50.818;4.344;2023-09-19T10:48:18;7.70;;;1.70;;
34725;SDS011;20951;50.818;4.344;2023-09-19T10:50:53;6.88;;;1.67;;
34725;SDS011;20951;50.818;4.344;2023-09-19T10:53:41;8.00;;;1.60;;
34725;SDS011;20951;50.818;4.344;2023-09-19T10:56:35;5.10;;;1.30;;
34725;SDS011;20951;50.818;4.344;2023-09-19T10:59:09;9.75;;;1.65;;
34725;SDS011;20951;50.818;4.344;2023-09-19T11:01:44;5.68;;;1.38;;
34725;SDS011;20951;50.818;4.344;2023-09-19T11:04:28;7.65;;;1.38;;
34725;SDS011;20951;50.818;4.344;2023-09-19T11:07:02;7.85;;;1.40;;
34725;SDS011;20951;50.818;4.344;2023-09-19T11:09:52;8.07;;;1.70;;
34725;SDS011;20951;50.818;4.344;2023-09-19T11:15:02;5.17;;;1.30;;
34725;SDS011;20951;50.818;4.344;2023-09-19T11:17:42;6.85;;;1.27;;
34725;SDS011;20951;50.818;4.344;2023-09-19T11:30:46;9.45;;;1.90;;
34725;SDS011;20951;50.818;4.344;2023-09-19T11:33:15;7.78;;;1.30;;
34725;SDS011;20951;50.818;4.344;2023-09-19T11:36:01;4.50;;;1.13;;
34725;SDS011;20951;50.818;4.344;2023-09-19T11:46:30;5.78;;;1.20;;
34725;SDS011;20951;50.818;4.344;2023-09-19T11:49:06;7.20;;;1.30;;
34725;SDS011;20951;50.818;4.344;2023-09-19T11:51:40;8.32;;;1.65;;
34725;SDS011;20951;50.818;4.344;2023-09-19T11:54:11;9.40;;;1.77;;
34725;SDS011;20951;50.818;4.344;2023-09-19T11:56:48;6.43;;;1.30;;
34725;SDS011;20951;50.818;4.344;2023-09-19T11:59:23;8.18;;;1.20;;
34725;SDS011;20951;50.818;4.344;2023-09-19T12:01:53;6.97;;;1.40;;
34725;SDS011;20951;50.818;4.344;2023-09-19T12:04:39;7.65;;;1.55;;
34725;SDS011;20951;50.818;4.344;2023-09-19T12:07:14;6.22;;;1.15;;
34725;SDS011;20951;50.818;4.344;2023-09-19T12:09:41;8.73;;;1.55;;
34725;SDS011;20951;50.818;4.344;2023-09-19T12:12:20;8.20;;;1.40;;
34725;SDS011;20951;50.818;4.344;2023-09-19T12:14:52;6.95;;;1.35;;
34725;SDS011;20951;50.818;4.344;2023-09-19T12:17:20;6.75;;;1.20;;
34725;SDS011;20951;50.818;4.344;2023-09-19T12:19:53;11.63;;;1.75;;
34725;SDS011;20951;50.818;4.344;2023-09-19T12:22:21;10.20;;;1.40;;
34725;SDS011;20951;50.818;4.344;2023-09-19T12:24:47;9.98;;;1.38;;
34725;SDS011;20951;50.818;4.344;2023-09-19T12:27:19;7.45;;;1.48;;
34725;SDS011;20951;50.818;4.344;2023-09-19T12:29:47;7.70;;;1.50;;
34725;SDS011;20951;50.818;4.344;2023-09-19T12:32:14;11.82;;;1.30;;
34725;SDS011;20951;50.818;4.344;2023-09-19T12:34:50;10.10;;;1.80;;
34725;SDS011;20951;50.818;4.344;2023-09-19T12:37:17;8.82;;;1.40;;
34725;SDS011;20951;50.818;4.344;2023-09-19T12:39:49;8.38;;;1.40;;
34725;SDS011;20951;50.818;4.344;2023-09-19T12:42:26;7.25;;;1.35;;
34725;SDS011;20951;50.818;4.344;2023-09-19T12:44:57;7.70;;;1.45;;
34725;SDS011;20951;50.818;4.344;2023-09-19T12:47:26;8.07;;;1.50;;
34725;SDS011;20951;50.818;4.344;2023-09-19T12:50:13;7.13;;;1.83;;
34725;SDS011;20951;50.818;4.344;2023-09-19T12:52:54;7.88;;;1.63;;
34725;SDS011;20951;50.818;4.344;2023-09-19T12:55:26;7.82;;;1.52;;
34725;SDS011;20951;50.818;4.344;2023-09-19T12:58:11;5.28;;;1.30;;
34725;SDS011;20951;50.818;4.344;2023-09-19T13:00:39;7.95;;;1.40;;
34725;SDS011;20951;50.818;4.344;2023-09-19T13:03:24;6.63;;;1.40;;
34725;SDS011;20951;50.818;4.344;2023-09-19T13:06:00;6.47;;;1.20;;
34725;SDS011;20951;50.818;4.344;2023-09-19T13:08:31;7.15;;;1.40;;
34725;SDS011;20951;50.818;4.344;2023-09-19T13:16:06;7.25;;;1.50;;
34725;SDS011;20951;50.818;4.344;2023-09-19T13:18:41;6.97;;;1.30;;
34725;SDS011;20951;50.818;4.344;2023-09-19T13:21:13;4.38;;;1.30;;
34725;SDS011;20951;50.818;4.344;2023-09-19T13:23:52;7.32;;;1.42;;
34725;SDS011;20951;50.818;4.344;2023-09-19T13:26:27;8.23;;;1.25;;
34725;SDS011;20951;50.818;4.344;2023-09-19T13:28:56;7.95;;;1.02;;
34725;SDS011;20951;50.818;4.344;2023-09-19T13:31:22;6.70;;;1.52;;
34725;SDS011;20951;50.818;4.344;2023-09-19T13:33:49;7.00;;;1.13;;
34725;SDS011;20951;50.818;4.344;2023-09-19T13:36:15;5.85;;;1.50;;
34725;SDS011;20951;50.818;4.344;2023-09-19T13:38:43;7.25;;;1.50;;
34725;SDS011;20951;50.818;4.344;2023-09-19T13:41:16;7.20;;;1.40;;
34725;SDS011;20951;50.818;4.344;2023-09-19T13:43:42;6.35;;;1.42;;
34725;SDS011;20951;50.818;4.344;2023-09-19T13:46:13;6.40;;;1.40;;
34725;SDS011;20951;50.818;4.344;2023-09-19T13:48:41;8.88;;;1.60;;
34725;SDS011;20951;50.818;4.344;2023-09-19T13:51:07;9.77;;;1.73;;
34725;SDS011;20951;50.818;4.344;2023-09-19T13:53:33;7.95;;;1.58;;
34725;SDS011;20951;50.818;4.344;2023-09-19T13:55:59;3.78;;;0.93;;
34725;SDS011;20951;50.818;4.344;2023-09-19T13:58:25;7.32;;;1.73;;
34725;SDS011;20951;50.818;4.344;2023-09-19T14:00:52;9.32;;;1.52;;
34725;SDS011;20951;50.818;4.344;2023-09-19T14:03:20;7.85;;;1.67;;
34725;SDS011;20951;50.818;4.344;2023-09-19T14:05:47;7.40;;;1.92;;
34725;SDS011;20951;50.818;4.344;2023-09-19T14:08:14;6.70;;;2.05;;
34725;SDS011;20951;50.818;4.344;2023-09-19T14:10:40;6.25;;;1.45;;
34725;SDS011;20951;50.818;4.344;2023-09-19T14:13:06;7.90;;;1.50;;
34725;SDS011;20951;50.818;4.344;2023-09-19T14:15:32;7.57;;;1.55;;
34725;SDS011;20951;50.818;4.344;2023-09-19T14:18:02;8.32;;;1.80;;
34725;SDS011;20951;50.818;4.344;2023-09-19T14:20:28;7.47;;;1.75;;
34725;SDS011;20951;50.818;4.344;2023-09-19T14:22:55;7.78;;;2.03;;
34725;SDS011;20951;50.818;4.344;2023-09-19T14:25:23;6.53;;;1.60;;
34725;SDS011;20951;50.818;4.344;2023-09-19T14:27:50;9.20;;;2.00;;
34725;SDS011;20951;50.818;4.344;2023-09-19T14:30:16;6.72;;;1.60;;
34725;SDS011;20951;50.818;4.344;2023-09-19T14:32:43;6.80;;;1.55;;
34725;SDS011;20951;50.818;4.344;2023-09-19T14:35:10;7.70;;;1.50;;
34725;SDS011;20951;50.818;4.344;2023-09-19T14:37:36;7.47;;;1.90;;
34725;SDS011;20951;50.818;4.344;2023-09-19T14:40:03;6.47;;;1.40;;
34725;SDS011;20951;50.818;4.344;2023-09-19T14:42:34;11.15;;;1.95;;
34725;SDS011;20951;50.818;4.344;2023-09-19T14:45:03;9.07;;;1.75;;
34725;SDS011;20951;50.818;4.344;2023-09-19T14:47:30;6.07;;;1.60;;
34725;SDS011;20951;50.818;4.344;2023-09-19T14:50:02;5.88;;;1.65;;
34725;SDS011;20951;50.818;4.344;2023-09-19T14:52:34;12.32;;;1.73;;
34725;SDS011;20951;50.818;4.344;2023-09-19T14:55:01;8.23;;;1.70;;
34725;SDS011;20951;50.818;4.344;2023-09-19T14:57:27;12.20;;;2.00;;
34725;SDS011;20951;50.818;4.344;2023-09-19T14:59:53;5.45;;;1.73;;
34725;SDS011;20951;50.818;4.344;2023-09-19T15:02:19;7.45;;;2.00;;
34725;SDS011;20951;50.818;4.344;2023-09-19T15:04:46;10.43;;;1.70;;
34725;SDS011;20951;50.818;4.344;2023-09-19T15:07:13;8.50;;;1.80;;
34725;SDS011;20951;50.818;4.344;2023-09-19T15:09:42;6.97;;;2.05;;
34725;SDS011;20951;50.818;4.344;2023-09-19T15:12:09;8.77;;;2.10;;
34725;SDS011;20951;50.818;4.344;2023-09-19T15:14:40;10.90;;;1.92;;
34725;SDS011;20951;50.818;4.344;2023-09-19T15:17:07;6.97;;;2.10;;
34725;SDS011;20951;50.818;4.344;2023-09-19T15:19:33;8.13;;;1.70;;
34725;SDS011;20951;50.818;4.344;2023-09-19T15:22:03;6.15;;;1.85;;
34725;SDS011;20951;50.818;4.344;2023-09-19T15:24:32;5.82;;;1.90;;
34725;SDS011;20951;50.818;4.344;2023-09-19T15:26:58;8.68;;;1.77;;
34725;SDS011;20951;50.818;4.344;2023-09-19T15:29:24;7.80;;;2.10;;
34725;SDS011;20951;50.818;4.344;2023-09-19T15:31:50;8.82;;;2.17;;
34725;SDS011;20951;50.818;4.344;2023-09-19T15:34:16;6.75;;;1.83;;
34725;SDS011;20951;50.818;4.344;2023-09-19T15:36:42;7.18;;;1.73;;
34725;SDS011;20951;50.818;4.344;2023-09-19T15:39:09;8.02;;;1.90;;